Time;durP1;ratioP1;P1;durP2;ratioP2;P2;SDS_P1;SDS_P2;PMS_P1;PMS_P2;Temp;Humidity;BMP_temperature;BMP_pressure;BME280_temperature;BME280_humidity;BME280_pressure;Samples;Min_cycle;Max_cycle;Signal;HPM_P1;HPM_P2
2021/08/01 00:01:09;;;;;;;15.50;5.17;;;23.10;47.30;;;;;;5097324;28;20464;-87
2021/08/01 00:03:36;;;;;;;9.73;4.50;;;22.90;48.00;;;;;;5100169;28;20427;-87
2021/08/01 00:06:03;;;;;;;6.33;3.40;;;22.80;48.40;;;;;;5108500;28;20546;-87
2021/08/01 00:08:30;;;;;;;6.47;3.90;;;22.70;48.70;;;;;;5095871;28;20499;-87
2021/08/01 00:10:58;;;;;;;7.30;4.30;;;22.90;47.50;;;;;;5073506;28;21007;-86
2021/08/01 00:13:25;;;;;;;6.73;4.20;;;22.80;48.10;;;;;;5071764;28;20451;-88
2021/08/01 00:15:52;;;;;;;18.07;5.60;;;23.00;47.60;;;;;;5089203;28;20865;-87
2021/08/01 00:18:20;;;;;;;9.13;4.43;;;22.80;48.10;;;;;;5078500;28;20564;-87
2021/08/01 00:20:49;;;;;;;21.37;5.20;;;23.10;47.30;;;;;;5096665;28;20556;-87
2021/08/01 00:23:16;;;;;;;6.47;4.00;;;23.20;47.40;;;;;;5088935;28;20451;-87
2021/08/01 00:25:42;;;;;;;9.87;4.60;;;23.30;47.50;;;;;;5076554;28;20919;-87
2021/08/01 00:28:10;;;;;;;17.33;5.27;;;23.40;47.10;;;;;;5076563;28;20479;-87
2021/08/01 00:30:37;;;;;;;13.70;4.50;;;23.30;46.70;;;;;;5090740;28;20458;-87
2021/08/01 00:33:04;;;;;;;10.60;4.60;;;23.20;47.50;;;;;;5076183;28;20478;-87
2021/08/01 00:35:32;;;;;;;10.30;4.40;;;23.20;47.10;;;;;;5076269;28;20482;-86
2021/08/01 00:37:59;;;;;;;9.70;4.90;;;22.70;47.60;;;;;;5089959;28;21039;-87
2021/08/01 00:40:26;;;;;;;4.90;3.73;;;22.60;48.70;;;;;;5079294;28;20816;-87
2021/08/01 00:42:53;;;;;;;7.37;3.97;;;22.40;48.60;;;;;;5096312;28;20477;-87
2021/08/01 00:45:20;;;;;;;9.00;4.70;;;22.30;48.70;;;;;;5086331;28;20514;-87
2021/08/01 00:47:47;;;;;;;18.50;5.53;;;22.20;48.20;;;;;;5075791;28;20551;-86
2021/08/01 00:50:15;;;;;;;15.70;4.63;;;22.20;48.70;;;;;;5076105;28;20924;-87
2021/08/01 00:52:46;;;;;;;14.33;5.00;;;22.30;48.80;;;;;;5075764;28;20447;-87
2021/08/01 00:55:13;;;;;;;13.20;4.27;;;22.20;48.30;;;;;;5075730;28;20963;-87
2021/08/01 00:57:40;;;;;;;15.37;7.60;;;22.30;47.80;;;;;;5086997;28;20553;-86
2021/08/01 01:00:14;;;;;;;7.77;4.20;;;22.40;48.60;;;;;;5079443;28;20534;-87
2021/08/01 01:02:43;;;;;;;8.80;4.10;;;22.60;47.80;;;;;;5069580;28;20527;-87
2021/08/01 01:05:19;;;;;;;8.23;4.30;;;22.70;47.00;;;;;;5056696;28;20483;-87
2021/08/01 01:07:52;;;;;;;12.27;3.83;;;22.70;47.20;;;;;;5055634;28;20547;-88
2021/08/01 01:10:24;;;;;;;13.43;4.30;;;23.00;47.30;;;;;;5075260;28;20427;-87
2021/08/01 01:12:54;;;;;;;8.97;4.40;;;23.00;47.30;;;;;;5075709;28;20443;-87
2021/08/01 01:15:23;;;;;;;7.67;3.97;;;23.10;46.00;;;;;;5075338;28;20467;-87
2021/08/01 01:17:53;;;;;;;7.60;4.07;;;22.70;47.00;;;;;;5076062;28;20474;-87
2021/08/01 01:20:37;;;;;;;21.43;4.40;;;22.70;46.80;;;;;;5075434;28;20448;-87
2021/08/01 01:23:24;;;;;;;11.70;3.63;;;22.50;46.80;;;;;;5075568;28;20411;-86
2021/08/01 01:25:59;;;;;;;8.40;3.67;;;22.70;47.00;;;;;;5075746;28;20486;-86
2021/08/01 01:28:33;;;;;;;14.23;4.20;;;22.50;47.30;;;;;;5075421;28;20492;-86
2021/08/01 01:31:09;;;;;;;5.30;3.47;;;22.20;47.20;;;;;;5074930;28;20477;-86
2021/08/01 01:33:38;;;;;;;10.70;4.70;;;21.70;48.40;;;;;;5075364;28;20473;-86
2021/08/01 01:36:07;;;;;;;18.77;4.90;;;21.40;49.90;;;;;;5075101;28;20525;-86
2021/08/01 01:38:36;;;;;;;12.00;3.80;;;21.50;49.70;;;;;;5075131;28;20852;-86
2021/08/01 01:41:05;;;;;;;7.30;4.20;;;21.60;49.20;;;;;;5075915;28;20994;-86
2021/08/01 01:43:33;;;;;;;13.50;3.80;;;21.50;49.20;;;;;;5075999;28;20859;-86
2021/08/01 01:46:01;;;;;;;12.67;5.27;;;21.40;49.80;;;;;;5075817;28;20506;-86
2021/08/01 01:48:28;;;;;;;9.80;4.37;;;21.60;49.30;;;;;;5076014;28;20528;-86
2021/08/01 01:50:55;;;;;;;9.50;4.40;;;21.50;49.60;;;;;;5076251;28;20436;-86
2021/08/01 01:53:23;;;;;;;12.63;3.80;;;22.10;48.80;;;;;;5076651;28;20508;-86
2021/08/01 01:55:51;;;;;;;8.57;3.60;;;22.10;47.30;;;;;;5078166;28;20475;-87
2021/08/01 01:58:19;;;;;;;28.23;4.20;;;22.30;48.30;;;;;;5080486;28;20471;-86
2021/08/01 02:00:47;;;;;;;7.17;4.37;;;22.30;47.00;;;;;;5083268;28;20454;-86
2021/08/01 02:03:14;;;;;;;8.33;4.30;;;21.80;48.00;;;;;;5081568;28;20514;-86
2021/08/01 02:05:43;;;;;;;10.53;3.90;;;21.90;48.90;;;;;;5081485;28;20952;-86
2021/08/01 02:08:10;;;;;;;5.67;3.73;;;22.00;47.50;;;;;;5079207;28;20470;-86
2021/08/01 02:10:40;;;;;;;6.30;4.17;;;21.90;48.60;;;;;;5078698;28;20471;-86
2021/08/01 02:13:09;;;;;;;6.90;3.87;;;21.90;48.70;;;;;;5078373;28;20474;-86
2021/08/01 02:15:43;;;;;;;4.87;3.60;;;22.20;48.70;;;;;;5080250;28;20447;-87
2021/08/01 02:18:18;;;;;;;8.53;4.17;;;22.50;48.50;;;;;;5078160;28;20532;-87
2021/08/01 02:20:47;;;;;;;7.80;4.10;;;22.20;47.80;;;;;;5092228;28;20420;-88
2021/08/01 02:23:17;;;;;;;7.20;4.23;;;22.10;47.60;;;;;;5097002;28;20539;-87
2021/08/01 02:25:46;;;;;;;5.23;3.70;;;22.20;47.90;;;;;;5094754;28;20428;-85
2021/08/01 02:28:15;;;;;;;7.40;4.33;;;22.10;47.90;;;;;;5083707;28;20533;-89
2021/08/01 02:30:44;;;;;;;11.03;4.20;;;21.80;48.70;;;;;;5091039;28;20553;-87
2021/08/01 02:33:12;;;;;;;8.60;4.20;;;21.60;48.80;;;;;;5095175;28;20454;-87
2021/08/01 02:35:40;;;;;;;6.07;4.37;;;21.10;49.80;;;;;;5095976;28;20443;-85
2021/08/01 02:38:08;;;;;;;8.07;4.40;;;20.90;50.70;;;;;;5094802;28;20472;-87
2021/08/01 02:40:37;;;;;;;8.63;4.90;;;20.80;51.30;;;;;;5093661;28;20571;-86
2021/08/01 02:43:11;;;;;;;9.53;4.47;;;20.90;51.60;;;;;;5091972;28;20447;-87
2021/08/01 02:45:41;;;;;;;12.20;4.00;;;21.10;50.80;;;;;;5080210;28;20517;-87
2021/08/01 02:48:11;;;;;;;7.40;4.13;;;21.10;50.50;;;;;;5076887;28;20525;-87
2021/08/01 02:50:40;;;;;;;14.07;4.23;;;20.90;51.20;;;;;;5077651;28;20450;-87
2021/08/01 02:53:11;;;;;;;8.70;4.20;;;20.70;51.00;;;;;;5077152;28;20868;-87
2021/08/01 02:55:42;;;;;;;5.77;3.87;;;20.50;51.90;;;;;;5075205;28;20518;-87
2021/08/01 02:58:09;;;;;;;13.37;4.57;;;20.50;51.70;;;;;;5076206;28;20456;-87
2021/08/01 03:00:39;;;;;;;7.53;4.20;;;20.30;51.40;;;;;;5075278;28;20475;-87
2021/08/01 03:03:06;;;;;;;5.27;3.90;;;20.40;52.00;;;;;;5075231;28;20467;-86
2021/08/01 03:05:33;;;;;;;7.80;4.00;;;20.50;52.00;;;;;;5075214;28;20443;-86
2021/08/01 03:08:00;;;;;;;5.80;3.80;;;20.80;52.60;;;;;;5074276;28;20587;-86
2021/08/01 03:10:27;;;;;;;7.67;4.10;;;20.70;50.90;;;;;;5074658;28;20577;-87
2021/08/01 03:12:56;;;;;;;7.27;3.97;;;20.70;50.70;;;;;;5074704;28;20428;-87
2021/08/01 03:15:23;;;;;;;7.67;4.37;;;20.60;52.10;;;;;;5073943;28;20504;-86
2021/08/01 03:17:51;;;;;;;6.60;4.20;;;20.40;51.50;;;;;;5074436;28;20528;-86
2021/08/01 03:20:18;;;;;;;12.07;4.00;;;20.20;51.50;;;;;;5074616;28;20455;-87
2021/08/01 03:22:45;;;;;;;8.17;4.13;;;20.50;51.60;;;;;;5074000;28;20466;-86
2021/08/01 03:25:12;;;;;;;7.40;3.90;;;20.50;51.60;;;;;;5073577;28;20534;-87
2021/08/01 03:27:39;;;;;;;6.30;4.10;;;20.70;51.70;;;;;;5073859;28;20885;-87
2021/08/01 03:30:06;;;;;;;9.13;4.30;;;20.90;51.30;;;;;;5073572;28;20960;-87
2021/08/01 03:32:33;;;;;;;11.33;4.07;;;20.70;50.00;;;;;;5073945;28;20479;-87
2021/08/01 03:35:02;;;;;;;6.37;4.20;;;20.60;50.40;;;;;;5073748;28;20552;-87
2021/08/01 03:37:29;;;;;;;16.67;4.80;;;20.60;51.20;;;;;;5073685;28;20487;-87
2021/08/01 03:39:56;;;;;;;10.23;4.53;;;20.90;50.70;;;;;;5074191;28;20889;-86
2021/08/01 03:42:23;;;;;;;7.20;3.93;;;20.80;50.90;;;;;;5073763;28;20933;-86
2021/08/01 03:44:51;;;;;;;5.33;3.90;;;21.00;51.30;;;;;;5073523;28;20483;-86
2021/08/01 03:47:18;;;;;;;12.07;3.90;;;21.30;50.50;;;;;;5074483;28;20547;-86
2021/08/01 03:49:45;;;;;;;5.07;3.63;;;21.10;50.70;;;;;;5073890;28;20455;-86
2021/08/01 03:52:13;;;;;;;7.67;4.43;;;21.00;50.50;;;;;;5074174;28;20509;-86
2021/08/01 03:54:40;;;;;;;8.77;4.33;;;20.80;51.50;;;;;;5074556;28;20479;-87
2021/08/01 03:57:07;;;;;;;6.87;3.93;;;20.80;50.40;;;;;;5070613;28;21068;-86
2021/08/01 03:59:35;;;;;;;5.83;3.73;;;20.60;50.10;;;;;;5069187;28;20576;-86
2021/08/01 04:02:03;;;;;;;5.30;3.80;;;20.40;51.20;;;;;;5073667;28;20454;-86
2021/08/01 04:04:30;;;;;;;4.60;4.00;;;20.20;52.30;;;;;;5073337;28;20474;-86
2021/08/01 04:06:57;;;;;;;5.30;3.60;;;20.40;52.00;;;;;;5073294;28;20552;-87
2021/08/01 04:09:25;;;;;;;6.53;5.13;;;20.40;52.00;;;;;;5073737;28;20497;-86
2021/08/01 04:11:52;;;;;;;4.87;3.40;;;20.50;51.60;;;;;;5073495;28;20456;-87
2021/08/01 04:14:19;;;;;;;8.23;3.80;;;20.50;50.80;;;;;;5074500;28;20454;-86
2021/08/01 04:16:46;;;;;;;6.10;3.67;;;20.30;51.30;;;;;;5073278;28;20451;-87
2021/08/01 04:19:14;;;;;;;5.83;3.60;;;20.40;51.30;;;;;;5073510;28;20462;-86
2021/08/01 04:21:41;;;;;;;6.80;3.77;;;20.60;51.20;;;;;;5073541;28;20941;-86
2021/08/01 04:24:09;;;;;;;5.03;3.27;;;21.00;51.30;;;;;;5073574;28;20458;-87
2021/08/01 04:26:37;;;;;;;7.33;3.67;;;20.80;49.80;;;;;;5073617;28;20518;-87
2021/08/01 04:29:04;;;;;;;8.03;4.10;;;20.80;50.00;;;;;;5073364;28;20891;-86
2021/08/01 04:31:31;;;;;;;6.70;3.70;;;21.10;50.90;;;;;;5074303;28;20453;-87
2021/08/01 04:33:58;;;;;;;6.60;3.17;;;21.10;50.40;;;;;;5073438;28;20489;-86
2021/08/01 04:36:25;;;;;;;5.03;3.80;;;21.60;50.40;;;;;;5073200;28;20559;-86
2021/08/01 04:38:52;;;;;;;4.80;3.20;;;21.60;49.90;;;;;;5073062;28;20509;-87
2021/08/01 04:41:19;;;;;;;7.00;3.33;;;21.90;49.40;;;;;;5073411;28;20856;-87
2021/08/01 04:43:47;;;;;;;4.30;3.27;;;22.20;49.30;;;;;;5073568;28;20480;-86
2021/08/01 04:46:15;;;;;;;6.50;3.50;;;21.90;47.50;;;;;;5074072;28;20525;-86
2021/08/01 04:48:42;;;;;;;8.30;3.30;;;21.70;48.50;;;;;;5073763;28;20545;-87
2021/08/01 04:51:09;;;;;;;4.87;3.60;;;21.60;48.60;;;;;;5072547;28;20539;-87
2021/08/01 04:53:36;;;;;;;3.43;3.00;;;21.40;49.30;;;;;;5074179;28;20462;-87
2021/08/01 04:56:08;;;;;;;6.27;3.57;;;21.40;49.70;;;;;;5079583;28;20462;-86
2021/08/01 04:58:34;;;;;;;10.23;3.77;;;21.00;49.80;;;;;;5078672;28;20459;-87
2021/08/01 05:01:09;;;;;;;7.90;4.10;;;20.90;50.00;;;;;;5078308;28;20427;-87
2021/08/01 05:03:36;;;;;;;4.20;3.27;;;20.90;50.20;;;;;;5078500;28;20499;-86
2021/08/01 05:06:03;;;;;;;9.57;3.53;;;20.90;51.20;;;;;;5081209;28;20546;-87
2021/08/01 05:08:30;;;;;;;4.80;3.30;;;21.00;50.00;;;;;;5080390;28;20550;-87
2021/08/01 05:10:57;;;;;;;6.27;3.97;;;20.90;51.00;;;;;;5077165;28;20467;-87
2021/08/01 05:13:24;;;;;;;4.60;3.53;;;20.80;50.20;;;;;;5080672;28;20451;-87
2021/08/01 05:15:51;;;;;;;6.30;4.13;;;20.70;51.10;;;;;;5082671;28;20447;-87
2021/08/01 05:18:20;;;;;;;4.20;3.30;;;20.70;50.80;;;;;;5080870;28;20871;-87
2021/08/01 05:20:47;;;;;;;6.20;3.70;;;20.70;51.10;;;;;;5085424;28;20458;-86
2021/08/01 05:23:15;;;;;;;6.70;3.93;;;20.60;50.80;;;;;;5081740;28;20463;-87
2021/08/01 05:25:42;;;;;;;7.97;3.73;;;20.50;51.20;;;;;;5079576;28;20439;-87
2021/08/01 05:28:09;;;;;;;8.90;3.37;;;20.60;52.00;;;;;;5079549;28;20581;-86
2021/08/01 05:30:35;;;;;;;9.43;3.40;;;21.00;50.60;;;;;;5078443;28;20470;-86
2021/08/01 05:33:05;;;;;;;6.17;3.47;;;21.00;50.00;;;;;;5076361;28;20436;-87
2021/08/01 05:35:36;;;;;;;4.60;3.50;;;21.00;50.00;;;;;;5077070;28;20451;-87
2021/08/01 05:38:02;;;;;;;14.37;3.93;;;21.40;50.70;;;;;;5076720;28;20565;-86
2021/08/01 05:40:29;;;;;;;5.93;3.00;;;21.60;49.50;;;;;;5076933;28;20523;-87
2021/08/01 05:42:59;;;;;;;4.33;3.23;;;21.40;50.30;;;;;;5076699;28;20935;-87
2021/08/01 05:45:26;;;;;;;4.50;3.30;;;21.50;50.20;;;;;;5076503;28;20582;-87
2021/08/01 05:47:53;;;;;;;4.43;3.43;;;21.70;49.60;;;;;;5076471;28;20542;-87
2021/08/01 05:50:20;;;;;;;5.97;3.27;;;21.90;49.50;;;;;;5077173;28;20474;-86
2021/08/01 05:52:48;;;;;;;7.00;3.47;;;22.00;49.50;;;;;;5076825;28;20475;-87
2021/08/01 05:55:15;;;;;;;5.73;3.70;;;22.10;48.70;;;;;;5076520;28;20510;-87
2021/08/01 05:57:42;;;;;;;7.77;4.30;;;22.20;48.70;;;;;;5076167;28;20490;-87
2021/08/01 06:00:10;;;;;;;5.67;3.63;;;22.10;48.50;;;;;;5076340;28;20519;-86
2021/08/01 06:02:37;;;;;;;4.90;3.30;;;21.70;48.60;;;;;;5075922;28;20463;-87
2021/08/01 06:05:04;;;;;;;6.00;3.30;;;21.70;50.10;;;;;;5076396;28;20470;-87
2021/08/01 06:07:31;;;;;;;4.20;2.77;;;22.00;49.00;;;;;;5076031;28;20483;-87
2021/08/01 06:09:59;;;;;;;6.33;3.10;;;22.30;49.10;;;;;;5076001;28;20904;-87
2021/08/01 06:12:26;;;;;;;7.60;4.03;;;22.30;48.10;;;;;;5075404;28;20442;-87
2021/08/01 06:14:55;;;;;;;9.03;3.67;;;22.30;47.70;;;;;;5075722;28;20784;-87
2021/08/01 06:17:22;;;;;;;5.03;3.23;;;22.50;48.70;;;;;;5075772;28;20470;-87
2021/08/01 06:19:53;;;;;;;7.50;4.37;;;22.40;48.20;;;;;;5077359;28;20499;-87
2021/08/01 06:22:20;;;;;;;5.10;3.17;;;22.60;48.20;;;;;;5077785;28;20455;-87
2021/08/01 06:24:47;;;;;;;4.77;3.00;;;22.80;48.50;;;;;;5077755;28;20841;-87
2021/08/01 06:27:15;;;;;;;6.83;2.83;;;22.90;47.50;;;;;;5080266;28;20563;-86
2021/08/01 06:29:42;;;;;;;8.53;3.37;;;23.10;47.30;;;;;;5091347;28;20452;-87
2021/08/01 06:32:09;;;;;;;4.37;3.20;;;22.80;47.10;;;;;;5092841;28;20439;-87
2021/08/01 06:34:36;;;;;;;5.87;3.23;;;22.60;46.90;;;;;;5093758;28;20469;-87
2021/08/01 06:37:03;;;;;;;6.17;3.20;;;22.70;47.70;;;;;;5094763;28;20470;-88
2021/08/01 06:39:30;;;;;;;4.10;3.20;;;22.20;48.30;;;;;;5094703;28;20439;-86
2021/08/01 06:41:57;;;;;;;5.77;3.30;;;21.60;49.50;;;;;;5094830;28;20436;-87
2021/08/01 06:44:26;;;;;;;6.43;3.73;;;21.30;50.80;;;;;;5095516;28;20452;-86
2021/08/01 06:46:53;;;;;;;7.17;3.73;;;21.10;51.50;;;;;;5093781;28;20443;-89
2021/08/01 06:49:20;;;;;;;7.70;3.50;;;21.20;52.10;;;;;;5093025;28;20443;-87
2021/08/01 06:51:49;;;;;;;8.40;3.53;;;21.00;52.60;;;;;;5094027;28;20461;-87
2021/08/01 06:54:17;;;;;;;7.40;3.73;;;21.00;52.50;;;;;;5093487;28;20474;-87
2021/08/01 06:56:44;;;;;;;7.43;3.93;;;21.20;51.60;;;;;;5092746;28;20486;-88
2021/08/01 06:59:11;;;;;;;7.20;3.90;;;21.30;51.50;;;;;;5096002;28;20439;-87
2021/08/01 07:01:40;;;;;;;6.57;3.20;;;21.50;51.10;;;;;;5094350;28;20511;-86
2021/08/01 07:04:07;;;;;;;7.20;3.60;;;21.50;51.80;;;;;;5094623;28;20467;-87
2021/08/01 07:06:34;;;;;;;9.70;4.23;;;21.70;51.20;;;;;;5094140;28;20424;-87
2021/08/01 07:09:01;;;;;;;6.40;3.40;;;21.60;52.20;;;;;;5094316;28;20548;-87
2021/08/01 07:11:28;;;;;;;10.70;3.63;;;21.30;52.80;;;;;;5092892;28;20482;-86
2021/08/01 07:13:55;;;;;;;9.63;3.60;;;21.30;53.40;;;;;;5093759;28;20432;-87
2021/08/01 07:16:22;;;;;;;5.63;3.87;;;21.60;52.80;;;;;;5094840;28;20436;-89
2021/08/01 07:18:51;;;;;;;9.63;3.90;;;21.80;52.20;;;;;;5093774;28;20459;-87
2021/08/01 07:21:18;;;;;;;6.20;4.20;;;21.60;51.80;;;;;;5094760;28;20455;-87
2021/08/01 07:23:45;;;;;;;11.07;4.30;;;21.40;52.60;;;;;;5094570;28;20451;-86
2021/08/01 07:26:12;;;;;;;5.87;4.03;;;21.60;52.20;;;;;;5093888;28;20428;-86
2021/08/01 07:28:39;;;;;;;5.93;3.63;;;21.50;52.60;;;;;;5094285;28;20538;-88
2021/08/01 07:31:06;;;;;;;7.30;4.20;;;21.60;52.20;;;;;;5094995;28;20432;-87
2021/08/01 07:33:33;;;;;;;5.40;3.60;;;22.20;51.20;;;;;;5097705;28;20448;-92
2021/08/01 07:36:03;;;;;;;5.97;4.07;;;22.50;50.60;;;;;;5098209;28;20423;-91
2021/08/01 07:38:29;;;;;;;4.83;2.90;;;22.80;49.90;;;;;;5095722;28;20502;-87
2021/08/01 07:40:58;;;;;;;5.77;3.43;;;22.70;49.70;;;;;;5086821;28;20514;-91
2021/08/01 07:43:25;;;;;;;6.20;2.93;;;22.90;49.80;;;;;;5097759;28;20435;-89
2021/08/01 07:45:52;;;;;;;6.53;3.73;;;23.20;48.70;;;;;;5097336;28;20416;-90
2021/08/01 07:48:19;;;;;;;8.70;4.10;;;23.40;47.70;;;;;;5097249;28;20528;-88
2021/08/01 07:50:46;;;;;;;10.50;4.37;;;22.70;49.10;;;;;;5093382;28;20454;-87
2021/08/01 07:53:14;;;;;;;8.47;4.07;;;22.70;49.30;;;;;;5079797;28;20527;-87
2021/08/01 07:55:43;;;;;;;4.63;3.53;;;22.70;49.40;;;;;;5077608;28;20443;-87
2021/08/01 07:58:09;;;;;;;7.10;4.30;;;22.60;49.40;;;;;;5077704;28;20467;-87
2021/08/01 08:00:36;;;;;;;11.20;4.80;;;22.30;50.50;;;;;;5077393;28;20493;-87
2021/08/01 08:03:04;;;;;;;10.20;5.40;;;22.00;50.90;;;;;;5077002;28;20546;-86
2021/08/01 08:05:31;;;;;;;8.23;5.20;;;22.00;51.00;;;;;;5080351;28;20466;-86
2021/08/01 08:07:57;;;;;;;9.80;5.07;;;22.00;51.10;;;;;;5077573;28;20494;-86
2021/08/01 08:10:27;;;;;;;11.30;4.10;;;21.70;52.00;;;;;;5078382;28;20501;-86
2021/08/01 08:12:54;;;;;;;7.73;5.07;;;21.70;52.20;;;;;;5076262;28;20893;-87
2021/08/01 08:15:21;;;;;;;8.73;4.90;;;21.90;50.90;;;;;;5078180;28;20463;-89
2021/08/01 08:17:48;;;;;;;14.87;5.47;;;22.30;51.00;;;;;;5077386;28;20586;-87
2021/08/01 08:20:15;;;;;;;13.37;6.50;;;22.60;50.60;;;;;;5077392;28;20432;-87
2021/08/01 08:22:42;;;;;;;14.47;6.70;;;22.70;49.60;;;;;;5087224;28;20454;-88
2021/08/01 08:25:10;;;;;;;13.20;4.60;;;22.70;50.00;;;;;;5084180;28;20455;-87
2021/08/01 08:27:39;;;;;;;5.27;3.37;;;23.00;49.60;;;;;;5087976;28;20454;-88
2021/08/01 08:30:08;;;;;;;5.63;3.40;;;23.00;49.30;;;;;;5087692;28;20439;-87
2021/08/01 08:32:35;;;;;;;8.40;3.10;;;23.20;49.20;;;;;;5076412;28;20485;-87
2021/08/01 08:35:04;;;;;;;7.53;4.30;;;23.30;48.60;;;;;;5074098;28;20447;-87
2021/08/01 08:37:31;;;;;;;7.23;4.10;;;23.10;48.60;;;;;;5074577;28;20597;-86
2021/08/01 08:39:58;;;;;;;8.00;4.80;;;23.00;49.20;;;;;;5073615;28;20541;-87
2021/08/01 08:42:27;;;;;;;6.20;3.97;;;23.00;49.60;;;;;;5079930;28;20482;-87
2021/08/01 08:44:56;;;;;;;11.33;4.27;;;23.00;49.60;;;;;;5093313;28;20482;-87
2021/08/01 08:47:26;;;;;;;9.77;3.47;;;23.20;48.90;;;;;;5095132;28;20517;-87
2021/08/01 08:49:58;;;;;;;6.73;3.97;;;23.60;48.00;;;;;;5067297;28;20539;-87
2021/08/01 08:52:28;;;;;;;8.90;4.13;;;23.50;47.80;;;;;;5080608;28;20447;-88
2021/08/01 08:55:00;;;;;;;5.67;3.93;;;23.60;48.00;;;;;;5072944;28;20490;-87
2021/08/01 08:57:31;;;;;;;10.27;3.70;;;23.60;48.30;;;;;;5078229;28;20478;-89
2021/08/01 09:00:02;;;;;;;8.70;4.13;;;23.20;48.90;;;;;;5076109;28;20479;-88
2021/08/01 09:02:29;;;;;;;7.00;4.50;;;22.70;49.00;;;;;;5075018;28;20520;-88
2021/08/01 09:04:57;;;;;;;8.43;5.57;;;22.40;50.00;;;;;;5084018;28;20950;-88
2021/08/01 09:07:25;;;;;;;7.27;4.10;;;22.80;50.10;;;;;;5080491;28;20478;-88
2021/08/01 09:09:53;;;;;;;19.03;4.43;;;22.70;50.00;;;;;;5067783;28;20486;-88
2021/08/01 09:12:20;;;;;;;16.67;6.87;;;22.70;49.90;;;;;;5095292;28;20955;-88
2021/08/01 09:14:48;;;;;;;12.70;4.40;;;22.50;50.70;;;;;;5078064;28;20538;-87
2021/08/01 09:17:35;;;;;;;16.70;5.90;;;22.40;50.70;;;;;;5098309;28;20454;-88
2021/08/01 09:20:17;;;;;;;9.57;4.17;;;22.70;50.10;;;;;;5085785;28;20522;-87
2021/08/01 09:23:03;;;;;;;11.40;4.27;;;22.90;49.70;;;;;;5078664;28;20483;-87
2021/08/01 09:25:32;;;;;;;6.80;4.10;;;22.80;49.30;;;;;;5078361;28;22704;-87
2021/08/01 09:28:09;;;;;;;7.07;4.57;;;22.90;49.80;;;;;;5079314;28;20576;-86
2021/08/01 09:30:46;;;;;;;4.90;3.53;;;23.00;49.10;;;;;;5076872;28;20455;-86
2021/08/01 09:33:18;;;;;;;7.63;4.77;;;23.30;48.90;;;;;;5088503;28;20501;-85
2021/08/01 09:35:46;;;;;;;8.43;4.70;;;22.90;49.00;;;;;;5078610;28;20927;-86
2021/08/01 09:38:14;;;;;;;10.00;5.03;;;22.50;50.50;;;;;;5075604;28;20496;-87
2021/08/01 09:40:41;;;;;;;7.50;4.73;;;22.50;51.00;;;;;;5079369;28;20455;-86
2021/08/01 09:43:10;;;;;;;12.30;4.80;;;22.50;51.00;;;;;;5079928;28;20513;-86
2021/08/01 09:45:38;;;;;;;10.87;4.70;;;22.20;50.40;;;;;;5077394;28;20490;-86
2021/08/01 09:48:17;;;;;;;8.30;4.83;;;22.10;51.80;;;;;;5084482;28;20484;-86
2021/08/01 09:51:00;;;;;;;9.17;4.60;;;22.00;51.30;;;;;;5070860;28;20512;-89
2021/08/01 09:53:27;;;;;;;6.90;4.60;;;22.00;53.00;;;;;;5074355;28;20488;-88
2021/08/01 09:56:20;;;;;;;5.57;3.80;;;22.00;52.20;;;;;;5077736;28;20521;-88
2021/08/01 09:58:48;;;;;;;8.03;4.60;;;22.00;51.70;;;;;;5057039;28;20479;-89
2021/08/01 10:01:15;;;;;;;10.20;4.60;;;22.10;51.80;;;;;;5076217;28;20518;-88
2021/08/01 10:03:45;;;;;;;7.33;4.37;;;22.30;51.30;;;;;;5074395;28;20542;-88
2021/08/01 10:06:14;;;;;;;18.37;4.83;;;22.40;51.80;;;;;;5075141;28;20455;-88
2021/08/01 10:08:42;;;;;;;6.73;4.33;;;22.90;51.00;;;;;;5072416;28;20487;-89
2021/08/01 10:11:11;;;;;;;7.50;4.27;;;22.90;50.90;;;;;;5074122;28;20549;-89
2021/08/01 10:13:40;;;;;;;4.67;3.50;;;23.10;49.70;;;;;;5073109;28;20780;-88
2021/08/01 10:16:08;;;;;;;8.03;4.17;;;23.20;49.50;;;;;;5074392;28;20877;-87
2021/08/01 10:18:35;;;;;;;10.17;4.50;;;23.20;49.50;;;;;;5073239;28;20475;-88
2021/08/01 10:21:04;;;;;;;11.53;4.20;;;22.90;49.40;;;;;;5076155;28;20492;-89
2021/08/01 10:23:37;;;;;;;8.20;4.27;;;22.40;50.10;;;;;;5074835;28;20494;-88
2021/08/01 10:26:09;;;;;;;5.80;4.37;;;22.20;51.10;;;;;;5075123;28;20452;-89
2021/08/01 10:28:40;;;;;;;8.00;5.00;;;22.30;51.10;;;;;;5065696;28;20551;-87
2021/08/01 10:31:11;;;;;;;5.17;4.00;;;22.30;51.90;;;;;;5069018;28;20501;-88
2021/08/01 10:33:52;;;;;;;7.13;3.57;;;22.60;51.50;;;;;;5072853;28;20525;-88
2021/08/01 10:36:27;;;;;;;5.20;3.63;;;22.40;50.30;;;;;;5081800;28;20485;-88
2021/08/01 10:38:59;;;;;;;10.27;3.50;;;21.90;50.70;;;;;;5099532;28;20505;-87
2021/08/01 10:41:31;;;;;;;5.00;3.53;;;22.00;49.90;;;;;;5097355;28;20461;-88
2021/08/01 10:44:08;;;;;;;9.37;3.93;;;21.70;51.70;;;;;;5099875;28;20827;-88
2021/08/01 10:46:36;;;;;;;5.70;3.70;;;21.40;52.80;;;;;;5097860;28;20920;-87
2021/08/01 10:49:03;;;;;;;5.10;3.80;;;21.60;53.10;;;;;;5096165;28;20519;-88
2021/08/01 10:51:33;;;;;;;9.00;3.90;;;21.70;52.10;;;;;;5096840;28;20447;-88
2021/08/01 10:54:33;;;;;;;9.37;4.30;;;21.60;52.60;;;;;;5096032;28;20514;-88
2021/08/01 10:57:13;;;;;;;8.57;3.77;;;22.00;51.50;;;;;;5090281;28;20531;-89
2021/08/01 11:00:03;;;;;;;8.10;4.23;;;22.40;51.50;;;;;;5097466;28;20445;-89
2021/08/01 11:02:32;;;;;;;8.40;4.70;;;22.90;51.00;;;;;;5096248;28;20431;-88
2021/08/01 11:04:59;;;;;;;6.97;4.20;;;23.10;50.80;;;;;;5096393;28;20522;-88
2021/08/01 11:07:59;;;;;;;5.57;4.07;;;23.40;50.10;;;;;;5083211;28;20909;-88
2021/08/01 11:10:29;;;;;;;8.43;4.03;;;23.70;49.50;;;;;;5067351;28;20478;-89
2021/08/01 11:12:56;;;;;;;6.50;4.20;;;24.00;49.40;;;;;;5073946;28;20538;-88
2021/08/01 11:15:45;;;;;;;6.43;4.10;;;23.80;47.50;;;;;;5073287;28;20507;-88
2021/08/01 11:18:12;;;;;;;7.83;3.40;;;23.40;49.60;;;;;;5073498;28;20964;-89
2021/08/01 11:20:52;;;;;;;7.40;4.10;;;23.80;48.40;;;;;;5073834;28;20444;-88
2021/08/01 11:23:19;;;;;;;6.10;3.80;;;24.00;48.50;;;;;;5053526;28;20439;-88
2021/08/01 11:26:12;;;;;;;6.83;3.60;;;24.40;49.30;;;;;;5052960;28;20476;-88
2021/08/01 11:28:41;;;;;;;5.70;3.67;;;24.20;47.50;;;;;;5053700;28;20510;-89
2021/08/01 11:31:21;;;;;;;13.17;4.37;;;24.10;49.30;;;;;;5058205;28;20486;-89
2021/08/01 11:33:50;;;;;;;8.60;4.37;;;24.30;48.40;;;;;;5074535;28;20447;-89
2021/08/01 11:36:25;;;;;;;6.60;3.70;;;24.70;47.80;;;;;;5073747;28;20514;-89
2021/08/01 11:39:07;;;;;;;5.10;4.03;;;24.70;46.90;;;;;;5073728;28;20528;-89
2021/08/01 11:41:44;;;;;;;8.63;3.70;;;24.40;48.10;;;;;;5073713;28;20530;-89
2021/08/01 11:44:18;;;;;;;6.20;3.50;;;24.90;47.30;;;;;;5073691;28;20519;-90
2021/08/01 11:47:09;;;;;;;5.93;3.70;;;25.00;46.20;;;;;;5073458;28;20497;-89
2021/08/01 11:49:49;;;;;;;7.33;3.80;;;24.90;45.40;;;;;;5073325;28;20995;-89
2021/08/01 11:52:22;;;;;;;4.60;3.23;;;24.90;43.90;;;;;;5073777;28;20510;-89
2021/08/01 11:54:55;;;;;;;18.57;3.80;;;24.70;44.40;;;;;;5074286;28;20486;-90
2021/08/01 11:57:29;;;;;;;8.17;3.43;;;24.90;45.20;;;;;;5074021;28;20976;-90
2021/08/01 11:59:56;;;;;;;6.30;3.73;;;24.90;43.20;;;;;;5074480;28;20436;-89
2021/08/01 12:02:23;;;;;;;4.63;3.77;;;24.80;44.70;;;;;;5074766;28;20547;-89
2021/08/01 12:04:55;;;;;;;5.77;3.60;;;25.60;42.30;;;;;;5074224;28;20494;-89
2021/08/01 12:07:23;;;;;;;6.40;3.63;;;25.10;43.00;;;;;;5074369;28;20494;-89
2021/08/01 12:09:50;;;;;;;4.70;3.37;;;24.90;44.60;;;;;;5074464;28;20570;-89
2021/08/01 12:12:30;;;;;;;7.60;3.67;;;25.10;43.50;;;;;;5074009;28;20996;-87
2021/08/01 12:14:57;;;;;;;5.57;3.50;;;25.30;42.90;;;;;;5077368;28;20948;-87
2021/08/01 12:17:24;;;;;;;8.17;4.10;;;25.30;42.30;;;;;;5078498;28;20471;-89
2021/08/01 12:19:52;;;;;;;9.07;4.47;;;25.50;42.00;;;;;;5080007;28;20478;-89
2021/08/01 12:22:21;;;;;;;7.43;3.90;;;26.00;41.80;;;;;;5079809;28;20450;-88
2021/08/01 12:24:50;;;;;;;4.83;3.77;;;25.40;43.70;;;;;;5080960;28;20462;-90
2021/08/01 12:27:19;;;;;;;7.90;3.20;;;25.50;43.20;;;;;;5080400;28;20526;-88
2021/08/01 12:29:50;;;;;;;5.00;4.00;;;25.60;43.10;;;;;;5081225;28;20486;-88
2021/08/01 12:32:20;;;;;;;5.30;3.50;;;24.90;45.10;;;;;;5080812;28;20476;-88
2021/08/01 12:34:48;;;;;;;6.10;4.00;;;24.40;46.10;;;;;;5081751;28;20514;-87
2021/08/01 12:37:15;;;;;;;5.57;3.30;;;24.00;45.40;;;;;;5080690;28;20515;-89
2021/08/01 12:39:49;;;;;;;3.90;3.13;;;24.60;45.30;;;;;;5088355;28;20457;-89
2021/08/01 12:42:17;;;;;;;7.50;3.93;;;24.80;43.60;;;;;;5092260;28;20439;-88
2021/08/01 12:44:57;;;;;;;11.23;3.20;;;25.00;42.70;;;;;;5096246;28;20431;-87
2021/08/01 12:47:25;;;;;;;8.53;3.40;;;25.00;42.30;;;;;;5095832;28;20454;-88
2021/08/01 12:49:53;;;;;;;6.70;4.00;;;24.80;42.60;;;;;;5098759;28;20512;-87
2021/08/01 12:52:22;;;;;;;11.30;4.20;;;25.10;41.80;;;;;;5096567;28;20533;-86
2021/08/01 12:54:50;;;;;;;6.73;3.80;;;25.10;44.50;;;;;;5078939;28;20440;-88
2021/08/01 12:57:17;;;;;;;6.97;3.33;;;24.60;43.00;;;;;;5079977;28;20475;-87